Flight Track Log - Related Links

Times and Time Zones

All times are in EDT time to prevent confusion due to time zone crossing. See the GPD20 flight status page for this flight to view local times or setup timezone preferences in your user account.

Time Position Orientation Groundspeed Altitude Reporting Facility
EDT Latitude Longitude Course Direction KTS MPH feet Rate Location/Type
Mon 06:00:29 PM 40.8500 -74.0167 37° Northeast 123 142 1,400  Level New York TRACON
Mon 06:01:29 PM 40.8833 -73.9833 37° Northeast 167 192 1,500 50 Climbing New York TRACON
Mon 06:02:29 PM 40.9167 -73.9500 37° Northeast 168 193 1,500 -100 Level New York TRACON
Mon 06:03:29 PM 40.9500 -73.9167 37° Northeast 167 192 1,300 -50 Descending New York TRACON
Mon 06:04:29 PM 40.9833 -73.8667 49° Northeast 163 188 1,400 50 Climbing New York TRACON
Mon 06:05:29 PM 40.9833 -73.8167 90° East 165 190 1,400  Level New York TRACON
Mon 06:06:29 PM 40.9667 -73.7500 108° East 164 189 1,400 368 Level New York TRACON
Mon 06:07:23 PM 40.9667 -73.7000 90° East 143 165 2,100 850 Climbing New York TRACON
Mon 06:08:29 PM 40.9667 -73.6500 90° East 134 154 3,100 810 Climbing New York TRACON
Mon 06:09:29 PM 40.9667 -73.6000 90° East 141 162 3,800 600 Climbing New York TRACON
Mon 06:10:29 PM 40.9833 -73.5500 66° East 153 176 4,300 500 Climbing New York TRACON
Mon 06:11:29 PM 41.0000 -73.5000 66° East 152 175 4,800 550 Climbing New York TRACON
Mon 06:12:29 PM 41.0167 -73.4500 66° East 153 176 5,400 524 Climbing New York TRACON
Mon 06:13:35 PM 41.0333 -73.3833 72° East 154 177 5,900 450 Climbing New York TRACON
Mon 06:14:29 PM 41.0333 -73.3333 71° East 154 177 6,300 474 Climbing New York TRACON
Mon 06:15:29 PM 41.0500 -73.2833 66° East 155 178 6,800 500 Climbing New York TRACON
Mon 06:16:29 PM 41.0667 -73.2333 66° East 155 178 7,300 333 Climbing New York TRACON
Mon 06:17:35 PM 41.0833 -73.1667 72° East 166 191 7,500 95 Climbing New York TRACON
Mon 06:18:35 PM 41.0833 -73.1167 90° East 173 199 7,500  Level New York TRACON
Mon 06:19:35 PM 41.1000 -73.0500 72° East 174 200 7,500  Level New York TRACON
Mon 06:20:35 PM 41.1167 -72.9833 72° East 174 200 7,500  Level New York TRACON
Mon 06:21:35 PM 41.1333 -72.9333 66° East 171 197 7,500  Level New York TRACON
Mon 06:22:30 PM 41.1500 -72.8667 72° East 172 198 7,500  Level New York TRACON
Mon 06:23:30 PM 41.1667 -72.8167 66° East 173 199 7,500  Level New York TRACON
Mon 06:24:29 PM 41.1667 -72.7500 90° East 174 200 7,500  Level New York TRACON
Mon 06:25:29 PM 41.1833 -72.6833 72° East 174 200 7,500  Level New York TRACON
Mon 06:26:29 PM 41.2000 -72.6333 66° East 177 204 7,500  Level New York TRACON
Mon 06:27:29 PM 41.2167 -72.5667 72° East 177 204 7,500  Level New York TRACON
Mon 06:28:30 PM 41.2333 -72.5000 72° East 175 201 7,500  Level New York TRACON
Mon 06:29:30 PM 41.2500 -72.4500 66° East 173 199 7,500  Level New York TRACON
Mon 06:30:59 PM 41.2644 -72.3572 78° East 172 198 7,500  Level Boston Center
Mon 06:31:59 PM 41.2769 -72.2908 76° East 175 201 7,500 -149 Level Boston Center
Mon 06:33:00 PM 41.2872 -72.2328 77° East 173 199 7,200 -246 Descending Boston Center
Mon 06:34:01 PM 41.2914 -72.1583 86° East 185 213 7,000 -99 Descending Boston Center
Mon 06:35:01 PM 41.2994 -72.0947 80° East 178 205 7,000  Level Boston Center
Mon 06:36:02 PM 41.3014 -72.0311 88° East 177 204 7,000  Level Boston Center

Login

Don't have an account? Register now (free) for customized features, flight alerts, and more!